Time;durP1;ratioP1;P1;durP2;ratioP2;P2;SDS_P1;SDS_P2;PMS_P1;PMS_P2;Temp;Humidity;BMP_temperature;BMP_pressure;BME280_temperature;BME280_humidity;BME280_pressure;Samples;Min_cycle;Max_cycle;Signal;HPM_P1;HPM_P2
2023/04/22 00:00:29;;;;;;;5.63;2.80;;;11.30;99.90;;;11.34;100.00;100250.75;5161822;28;20050;-70
2023/04/22 00:03:03;;;;;;;4.45;2.85;;;11.20;99.90;;;11.36;100.00;100246.47;5157031;28;20499;-72
2023/04/22 00:05:36;;;;;;;4.78;2.83;;;11.20;99.90;;;11.35;100.00;100244.72;5172191;28;20042;-70
2023/04/22 00:08:09;;;;;;;5.13;2.67;;;11.20;99.90;;;11.37;100.00;100243.00;5164332;28;20034;-70
2023/04/22 00:10:41;;;;;;;5.85;3.00;;;11.20;99.90;;;11.35;100.00;100239.50;5164310;28;20049;-74
2023/04/22 00:13:13;;;;;;;6.82;3.13;;;11.30;99.90;;;11.35;100.00;100244.72;5164355;28;20053;-73
2023/04/22 00:15:46;;;;;;;5.45;2.92;;;11.30;99.90;;;11.36;100.00;100236.03;5164934;28;20395;-73
2023/04/22 00:18:18;;;;;;;4.70;2.88;;;11.30;99.90;;;11.36;100.00;100242.13;5162625;28;20129;-72
2023/04/22 00:20:52;;;;;;;3.80;2.70;;;11.30;99.90;;;11.34;100.00;100237.72;5157905;28;20136;-71
2023/04/22 00:23:24;;;;;;;4.13;2.53;;;11.20;99.90;;;11.32;100.00;100228.97;5162020;28;20043;-73
2023/04/22 00:25:57;;;;;;;4.20;2.70;;;11.20;99.90;;;11.29;100.00;100239.34;5155983;28;20060;-72
2023/04/22 00:28:29;;;;;;;4.90;2.70;;;11.20;99.90;;;11.25;100.00;100237.50;5165108;28;20053;-72
2023/04/22 00:31:03;;;;;;;3.35;2.30;;;11.20;99.90;;;11.24;100.00;100240.97;5162448;28;20736;-73
2023/04/22 00:33:35;;;;;;;4.05;2.60;;;11.10;99.90;;;11.23;100.00;100237.47;5163897;28;20101;-72
2023/04/22 00:36:09;;;;;;;4.32;2.90;;;11.20;99.90;;;11.22;100.00;100240.06;5159087;28;20047;-71
2023/04/22 00:38:47;;;;;;;4.50;2.80;;;11.10;99.90;;;11.22;100.00;100237.44;5162853;28;20101;-73
2023/04/22 00:41:19;;;;;;;4.38;2.47;;;11.10;99.90;;;11.21;100.00;100235.66;5170185;28;20050;-71
2023/04/22 00:43:52;;;;;;;3.28;2.70;;;11.10;99.90;;;11.20;100.00;100233.91;5163967;28;20064;-71
2023/04/22 00:46:25;;;;;;;3.88;2.40;;;11.10;99.90;;;11.19;100.00;100237.38;5160154;28;20165;-73
2023/04/22 00:48:57;;;;;;;3.80;2.47;;;11.10;99.90;;;11.18;100.00;100240.81;5162365;28;20054;-72
2023/04/22 00:51:31;;;;;;;5.38;2.55;;;11.00;99.90;;;11.18;100.00;100248.66;5154099;28;20058;-72
2023/04/22 00:54:05;;;;;;;3.17;2.30;;;11.00;99.90;;;11.20;100.00;100244.34;5163739;28;20038;-71
2023/04/22 00:56:40;;;;;;;3.72;2.33;;;11.10;99.90;;;11.18;100.00;100246.91;5163352;28;20038;-72
2023/04/22 00:59:12;;;;;;;2.90;2.30;;;11.00;99.90;;;11.17;100.00;100249.50;5165998;28;20056;-71
2023/04/22 01:01:44;;;;;;;4.05;2.28;;;11.00;99.90;;;11.14;100.00;100238.13;5161546;28;20042;-72
2023/04/22 01:04:17;;;;;;;3.60;2.60;;;11.00;99.90;;;11.13;100.00;100244.19;5162619;28;20077;-71
2023/04/22 01:06:52;;;;;;;3.40;2.10;;;11.00;99.90;;;11.13;100.00;100246.81;5148695;28;20038;-70
2023/04/22 01:09:24;;;;;;;3.00;2.22;;;11.00;99.90;;;11.12;100.00;100242.44;5161508;28;20039;-71
2023/04/22 01:11:57;;;;;;;3.85;2.15;;;11.00;99.90;;;11.13;100.00;100243.31;5163177;28;20372;-71
2023/04/22 01:14:29;;;;;;;3.75;2.55;;;11.00;99.90;;;11.12;100.00;100242.44;5161693;28;20108;-73
2023/04/22 01:17:01;;;;;;;2.55;2.05;;;11.00;99.90;;;11.11;100.00;100245.88;5162967;28;20049;-73
2023/04/22 01:19:33;;;;;;;2.88;1.95;;;11.00;99.90;;;11.13;100.00;100238.97;5162812;28;20408;-72
2023/04/22 01:22:08;;;;;;;3.40;2.10;;;11.00;99.90;;;11.13;100.00;100246.81;5155195;28;20384;-70
2023/04/22 01:24:42;;;;;;;3.67;2.10;;;11.00;99.90;;;11.15;100.00;100241.66;5177506;28;20141;-72
2023/04/22 01:27:14;;;;;;;3.28;2.33;;;11.00;99.90;;;11.15;100.00;100239.03;5160863;28;20415;-70
2023/04/22 01:29:48;;;;;;;3.30;2.10;;;11.00;99.90;;;11.14;100.00;100239.84;5161010;28;20126;-73
2023/04/22 01:32:20;;;;;;;4.15;2.17;;;11.00;99.90;;;11.13;100.00;100238.97;5162648;28;20066;-72
2023/04/22 01:34:53;;;;;;;3.15;2.28;;;11.00;99.90;;;11.12;100.00;100234.59;5163364;28;20499;-72
2023/04/22 01:37:25;;;;;;;3.65;2.10;;;11.00;99.90;;;11.11;100.00;100240.69;5161313;28;20046;-73
2023/04/22 01:40:00;;;;;;;2.97;2.15;;;11.00;99.90;;;11.11;100.00;100240.69;5157094;28;20150;-73
2023/04/22 01:42:33;;;;;;;3.30;2.10;;;11.00;99.90;;;11.10;100.00;100238.91;5158546;28;20594;-68
2023/04/22 01:45:07;;;;;;;3.58;2.10;;;11.00;99.90;;;11.08;100.00;100240.63;5157974;28;20049;-72
2023/04/22 01:47:39;;;;;;;3.80;2.50;;;11.00;99.90;;;11.08;100.00;100238.00;5161382;28;20474;-72
2023/04/22 01:50:11;;;;;;;3.88;2.30;;;11.00;99.90;;;11.06;100.00;100237.06;5162481;28;20042;-71
2023/04/22 01:52:44;;;;;;;3.15;2.10;;;11.00;99.90;;;11.08;100.00;100239.72;5161868;28;20037;-72
2023/04/22 01:55:18;;;;;;;2.97;2.05;;;11.00;99.90;;;11.07;100.00;100238.81;5161345;28;20177;-72
2023/04/22 01:57:51;;;;;;;3.38;1.92;;;11.00;99.90;;;11.08;100.00;100230.19;5168869;28;20042;-74
2023/04/22 02:00:23;;;;;;;2.63;1.88;;;11.00;99.90;;;11.09;100.00;100236.28;5157172;28;20051;-69
2023/04/22 02:02:55;;;;;;;4.10;2.40;;;11.00;99.90;;;11.11;100.00;100234.56;5149883;28;20063;-71
2023/04/22 02:05:29;;;;;;;2.90;2.17;;;11.00;99.90;;;11.11;100.00;100224.16;5159418;28;20050;-73
2023/04/22 02:08:01;;;;;;;3.08;2.00;;;11.00;99.90;;;11.14;100.00;100226.81;5161407;28;20852;-73
2023/04/22 02:10:34;;;;;;;2.67;2.17;;;11.00;99.90;;;11.16;100.00;100227.75;5161915;28;20045;-73
2023/04/22 02:13:07;;;;;;;4.07;2.45;;;11.00;99.90;;;11.20;100.00;100218.25;5162901;28;20105;-71
2023/04/22 02:15:40;;;;;;;3.08;2.17;;;11.10;99.90;;;11.22;100.00;100221.81;5162742;28;20500;-73
2023/04/22 02:18:12;;;;;;;3.22;1.75;;;11.10;99.90;;;11.24;100.00;100217.50;5162276;28;20050;-69
2023/04/22 02:20:47;;;;;;;3.00;2.13;;;11.10;99.90;;;11.27;100.00;100209.72;5154473;28;20125;-71
2023/04/22 02:23:20;;;;;;;3.83;2.20;;;11.10;99.90;;;11.28;100.00;100207.16;5152952;28;20043;-72
2023/04/22 02:25:55;;;;;;;2.92;2.10;;;11.20;99.90;;;11.29;100.00;100213.25;5154794;28;20043;-71
2023/04/22 02:28:27;;;;;;;2.80;1.98;;;11.20;99.90;;;11.31;100.00;100206.34;5154132;28;20043;-71
2023/04/22 02:31:01;;;;;;;3.05;2.22;;;11.20;99.90;;;11.30;100.00;100204.59;5162156;28;20113;-72
2023/04/22 02:33:33;;;;;;;2.88;1.90;;;11.20;99.90;;;11.30;100.00;100199.38;5158852;28;20137;-72
2023/04/22 02:36:06;;;;;;;3.10;2.30;;;11.20;99.90;;;11.30;100.00;100210.69;5150637;28;20047;-74
2023/04/22 02:38:39;;;;;;;3.00;2.10;;;11.20;99.90;;;11.32;100.00;100208.09;5159920;28;20132;-71
2023/04/22 02:41:13;;;;;;;3.03;1.90;;;11.20;99.90;;;11.34;100.00;100201.19;5168612;28;20120;-73
2023/04/22 02:43:47;;;;;;;;;;;11.20;99.90;;;11.36;100.00;100205.59;5161343;28;20061;-70
2023/04/22 02:46:19;;;;;;;2.63;2.00;;;11.30;99.90;;;11.37;100.00;100203.88;5161366;28;19945;-70
2023/04/22 02:48:51;;;;;;;3.08;2.00;;;11.30;99.90;;;11.39;100.00;100210.00;5160502;28;20055;-69
2023/04/22 02:51:23;;;;;;;3.28;2.00;;;11.30;99.90;;;11.39;100.00;100205.66;5161423;28;20380;-69
2023/04/22 02:53:55;;;;;;;4.13;2.17;;;11.30;99.90;;;11.44;100.00;100207.50;5165001;28;20042;-70
2023/04/22 02:56:30;;;;;;;2.72;1.95;;;11.30;99.90;;;11.47;100.00;100203.22;5165862;28;20052;-70
2023/04/22 02:59:02;;;;;;;3.08;2.13;;;11.30;99.90;;;11.50;100.00;100203.28;5166203;28;20046;-72
2023/04/22 03:01:35;;;;;;;3.20;1.92;;;11.40;99.90;;;11.53;100.00;100202.47;5165337;28;20117;-72
2023/04/22 03:04:10;;;;;;;3.60;2.20;;;11.40;99.90;;;11.54;100.00;100199.91;5164448;28;20054;-71
2023/04/22 03:06:43;;;;;;;2.30;1.83;;;11.40;99.90;;;11.57;100.00;100194.75;5164168;28;20050;-73
2023/04/22 03:09:16;;;;;;;2.38;1.83;;;11.50;99.90;;;11.59;100.00;100195.66;5164680;28;20057;-72
2023/04/22 03:11:49;;;;;;;3.78;2.50;;;11.50;99.90;;;11.60;100.00;100189.56;5163569;28;20081;-70
2023/04/22 03:14:21;;;;;;;3.75;2.20;;;11.50;99.90;;;11.62;100.00;100189.63;5156318;28;20065;-72
2023/04/22 03:16:56;;;;;;;3.22;2.35;;;11.50;99.90;;;11.59;100.00;100182.59;5174434;28;20034;-70
2023/04/22 03:19:28;;;;;;;3.45;2.35;;;11.50;99.90;;;11.65;100.00;100187.94;5173213;28;20066;-69
2023/04/22 03:22:02;;;;;;;3.00;1.60;;;11.60;99.90;;;11.71;100.00;100195.03;5162656;28;20459;-72
2023/04/22 03:24:34;;;;;;;2.80;1.90;;;11.60;99.90;;;11.76;100.00;100195.13;5163995;28;20525;-72
2023/04/22 03:27:12;;;;;;;2.97;2.20;;;11.60;99.90;;;11.79;100.00;100195.19;5159609;28;20049;-72
2023/04/22 03:29:45;;;;;;;2.58;1.98;;;11.70;99.90;;;11.81;100.00;100188.31;5162751;28;20042;-71
2023/04/22 03:32:18;;;;;;;2.85;1.90;;;11.70;99.90;;;11.80;100.00;100192.63;5164280;28;20149;-71
2023/04/22 03:34:50;;;;;;;2.22;1.80;;;11.70;99.90;;;11.82;100.00;100190.06;5172641;28;20137;-70
2023/04/22 03:37:24;;;;;;;3.20;2.15;;;11.70;99.90;;;11.81;100.00;100193.53;5164970;28;20530;-72
2023/04/22 03:39:56;;;;;;;2.65;1.88;;;11.70;99.90;;;11.85;100.00;100187.50;5168014;28;20043;-72
2023/04/22 03:42:30;;;;;;;2.28;1.92;;;11.70;99.90;;;11.88;100.00;100195.41;5153313;28;20071;-72
2023/04/22 03:45:02;;;;;;;3.65;2.20;;;11.70;99.90;;;11.88;100.00;100195.41;5168122;28;20504;-72
2023/04/22 03:47:40;;;;;;;3.97;2.53;;;11.80;99.90;;;11.89;100.00;100187.59;5171719;28;20057;-73
2023/04/22 03:50:23;;;;;;;2.05;1.80;;;11.80;99.90;;;11.91;100.00;100182.41;5163387;28;20048;-72
2023/04/22 03:52:57;;;;;;;;;;;11.80;99.90;;;11.94;100.00;100174.66;5166312;28;20051;-71
2023/04/22 03:55:29;;;;;;;2.83;1.92;;;11.80;99.90;;;11.93;100.00;100178.06;5160189;28;20419;-73
2023/04/22 03:58:02;;;;;;;3.28;1.98;;;11.80;99.90;;;11.94;100.00;100174.66;5159572;28;20071;-71
2023/04/22 04:00:36;;;;;;;3.45;2.00;;;11.80;99.90;;;11.94;100.00;100169.41;5161010;28;20053;-73
2023/04/22 04:03:15;;;;;;;3.47;2.53;;;11.80;99.90;;;11.95;100.00;100165.94;5164588;28;20046;-71
2023/04/22 04:05:47;;;;;;;3.90;2.20;;;11.90;99.90;;;11.97;100.00;100161.63;5179048;28;20451;-72
2023/04/22 04:08:19;;;;;;;4.25;2.28;;;11.90;99.90;;;11.99;100.00;100157.31;5175569;28;20042;-71
2023/04/22 04:10:51;;;;;;;3.33;2.47;;;11.90;99.90;;;11.99;100.00;100157.31;5162494;28;20135;-71
2023/04/22 04:13:25;;;;;;;3.75;2.67;;;11.90;99.90;;;11.96;100.00;100152.03;5170627;28;20426;-76
2023/04/22 04:16:20;;;;;;;2.92;2.22;;;11.90;99.90;;;12.00;100.00;100158.19;5145006;28;20061;-69
2023/04/22 04:19:00;;;;;;;3.75;2.28;;;12.00;99.90;;;12.02;100.00;100146.06;5156434;28;20042;-70
2023/04/22 04:21:33;;;;;;;3.63;2.33;;;11.90;99.90;;;12.02;100.00;100148.66;5162380;28;20132;-72
2023/04/22 04:24:06;;;;;;;3.85;2.15;;;12.00;99.90;;;12.03;100.00;100143.47;5173290;28;20046;-71
2023/04/22 04:26:45;;;;;;;3.90;2.03;;;12.00;99.90;;;12.01;100.00;100150.41;5162681;28;20038;-71
2023/04/22 04:29:25;;;;;;;4.72;2.33;;;12.00;99.90;;;12.02;100.00;100146.94;5162263;28;20586;-72
2023/04/22 04:32:08;;;;;;;3.22;1.98;;;12.00;99.90;;;12.08;100.00;100140.94;5162745;28;20048;-72
2023/04/22 04:34:41;;;;;;;3.25;2.03;;;12.00;99.90;;;12.07;100.00;100142.69;5162558;28;20046;-71
2023/04/22 04:37:15;;;;;;;4.47;3.40;;;12.00;99.90;;;12.07;100.00;100144.41;5162467;28;20507;-73
2023/04/22 04:40:02;;;;;;;4.70;3.53;;;12.10;99.90;;;12.07;100.00;100147.91;5155712;28;20046;-72
2023/04/22 04:42:51;;;;;;;4.03;2.60;;;12.00;99.90;;;12.08;100.00;100146.16;5156404;28;20145;-64
2023/04/22 04:45:29;;;;;;;4.43;3.10;;;12.10;99.90;;;12.08;100.00;100141.81;5161624;28;20507;-64
2023/04/22 04:48:03;;;;;;;6.75;3.38;;;12.00;99.90;;;12.09;100.00;100140.97;5170519;28;20075;-65
2023/04/22 04:50:42;;;;;;;3.72;2.63;;;12.00;99.90;;;12.11;100.00;100128.78;5163775;28;20046;-65
2023/04/22 04:53:15;;;;;;;5.80;3.20;;;12.10;99.90;;;12.14;100.00;100126.25;5163681;28;20581;-65
2023/04/22 04:55:49;;;;;;;3.83;2.67;;;12.10;99.90;;;12.14;100.00;100126.25;5163719;28;20050;-64
2023/04/22 04:58:32;;;;;;;4.18;2.40;;;12.10;99.90;;;12.17;100.00;100131.53;5164725;28;20085;-64
2023/04/22 05:01:16;;;;;;;4.80;3.38;;;12.10;99.90;;;12.15;100.00;100128.00;5163638;28;20145;-66
2023/04/22 05:03:51;;;;;;;3.40;2.30;;;12.10;99.90;;;12.16;100.00;100129.75;5179658;28;20042;-65
2023/04/22 05:06:25;;;;;;;3.53;2.50;;;12.10;99.90;;;12.15;100.00;100134.97;5178551;28;20042;-65
2023/04/22 05:09:03;;;;;;;4.97;2.78;;;12.20;99.90;;;12.16;100.00;100131.50;5183652;28;20460;-65
2023/04/22 05:11:35;;;;;;;3.10;2.50;;;12.20;99.90;;;12.20;100.00;100131.59;5183211;28;20038;-65
2023/04/22 05:14:16;;;;;;;5.72;3.47;;;12.20;99.90;;;12.22;100.00;100129.00;5176567;28;20136;-64
2023/04/22 05:16:52;;;;;;;6.00;3.45;;;12.20;99.90;;;12.29;100.00;100129.97;5163436;28;20074;-65
2023/04/22 05:19:25;;;;;;;4.43;3.65;;;12.20;99.90;;;12.30;100.00;100132.63;5163608;28;20077;-65
2023/04/22 05:21:59;;;;;;;7.28;3.78;;;12.30;99.90;;;12.31;100.00;100136.09;5163021;28;20207;-65
2023/04/22 05:24:31;;;;;;;4.88;3.08;;;12.30;99.90;;;12.35;100.00;100143.16;5163130;28;20034;-64
2023/04/22 05:27:04;;;;;;;4.72;2.92;;;12.30;99.90;;;12.36;100.00;100137.94;5162825;28;20050;-64
2023/04/22 05:29:38;;;;;;;7.05;3.63;;;12.40;99.90;;;12.42;100.00;100143.28;5162921;28;20050;-65
2023/04/22 05:32:12;;;;;;;4.60;3.20;;;12.40;99.90;;;12.48;100.00;100142.50;5162787;28;20066;-65
2023/04/22 05:34:45;;;;;;;3.05;2.58;;;12.40;99.90;;;12.52;100.00;100139.09;5162698;28;20046;-65
2023/04/22 05:37:17;;;;;;;3.22;2.45;;;12.50;99.90;;;12.58;100.00;100149.63;5147473;28;20051;-64
2023/04/22 05:39:50;;;;;;;4.72;3.30;;;12.50;99.90;;;12.61;100.00;100149.69;5142396;28;20086;-65
2023/04/22 05:42:22;;;;;;;4.55;2.25;;;12.60;99.90;;;12.66;100.00;100153.28;5158062;28;20041;-63
2023/04/22 05:44:55;;;;;;;4.82;2.30;;;12.60;99.90;;;12.72;100.00;100152.50;5199357;28;20422;-64
2023/04/22 05:47:30;;;;;;;5.90;3.40;;;12.70;99.90;;;12.76;100.00;100144.72;5183082;28;20538;-64
2023/04/22 05:50:03;;;;;;;;;;;12.70;99.90;;;12.79;100.00;100143.00;5183227;28;20042;-63
2023/04/22 05:52:58;;;;;;;5.57;2.60;;;12.80;99.90;;;12.87;100.00;100146.63;5165223;28;19926;-66
2023/04/22 05:55:34;;;;;;;3.83;2.42;;;12.80;99.90;;;12.91;100.00;100148.41;5161524;28;20058;-65
2023/04/22 05:58:07;;;;;;;3.20;2.17;;;12.90;99.90;;;12.91;100.00;100143.19;5161808;28;20038;-65
2023/04/22 06:00:51;;;;;;;3.08;2.22;;;12.90;99.90;;;12.94;100.00;100138.00;5161435;28;20054;-67
2023/04/22 06:04:03;;;;;;;3.83;2.53;;;12.90;99.90;;;12.98;100.00;100132.84;5149184;28;20054;-55
2023/04/22 06:06:36;;;;;;;2.50;2.30;;;12.90;99.90;;;13.02;100.00;100146.84;5160305;28;20045;-53
2023/04/22 06:09:08;;;;;;;5.53;3.97;;;13.00;99.90;;;13.04;100.00;100139.91;5160248;28;20038;-55
2023/04/22 06:11:40;;;;;;;4.20;2.42;;;13.00;99.90;;;13.06;100.00;100140.81;5158542;28;20054;-54
2023/04/22 06:14:12;;;;;;;4.07;2.38;;;13.00;99.90;;;13.08;100.00;100144.31;5161273;28;20117;-53
2023/04/22 06:16:49;;;;;;;2.45;1.60;;;13.10;99.90;;;13.11;100.00;100147.00;5162293;28;20527;-55
2023/04/22 06:19:23;;;;;;;3.42;2.08;;;13.10;99.90;;;13.19;100.00;100150.59;5164197;28;20050;-55
2023/04/22 06:21:55;;;;;;;2.15;1.90;;;13.10;99.90;;;13.27;100.00;100148.09;5165462;28;20053;-55
2023/04/22 06:24:28;;;;;;;2.85;2.17;;;13.20;99.90;;;13.39;100.00;100155.25;5161633;28;20070;-55
2023/04/22 06:27:01;;;;;;;2.83;2.20;;;13.20;99.90;;;13.52;100.00;100154.53;5164362;28;20097;-54
2023/04/22 06:29:34;;;;;;;3.13;2.20;;;13.30;99.90;;;13.66;100.00;100158.22;5152017;28;20050;-54
2023/04/22 06:32:07;;;;;;;3.45;2.40;;;13.40;99.90;;;13.83;100.00;100146.19;5166218;28;20089;-54
2023/04/22 06:34:40;;;;;;;3.72;2.28;;;13.60;99.90;;;14.01;100.00;100155.09;5164577;28;20434;-54
2023/04/22 06:37:12;;;;;;;2.53;1.90;;;13.70;99.90;;;14.16;100.00;100163.13;5161184;28;20054;-54
2023/04/22 06:39:44;;;;;;;3.03;1.73;;;13.90;99.90;;;14.28;100.00;100162.34;5163163;28;20395;-52
2023/04/22 06:42:45;;;;;;;2.30;2.00;;;14.00;99.90;;;14.38;100.00;100162.47;5162895;28;20059;-52
2023/04/22 06:45:36;;;;;;;2.88;1.77;;;14.10;99.90;;;14.44;100.00;100155.53;5165983;28;20088;-52
2023/04/22 06:48:28;;;;;;;2.95;2.05;;;14.10;99.90;;;14.58;100.00;100149.56;5163513;28;20101;-54
2023/04/22 06:51:26;;;;;;;3.47;1.95;;;14.30;99.90;;;14.78;100.00;100141.84;5176921;28;20531;-53
2023/04/22 06:53:58;;;;;;;3.95;1.92;;;14.50;99.90;;;14.97;100.00;100142.88;5161101;28;20042;-54
2023/04/22 06:56:30;;;;;;;3.42;2.10;;;14.70;99.90;;;15.35;100.00;100129.97;5162324;28;20410;-53
2023/04/22 06:59:02;;;;;;;3.80;2.15;;;15.00;99.90;;;15.80;100.00;100136.31;5164766;28;20042;-53
2023/04/22 07:01:35;;;;;;;2.13;1.90;;;15.40;99.90;;;16.25;100.00;100132.03;5163832;28;20043;-54
2023/04/22 07:04:07;;;;;;;2.40;2.17;;;15.70;99.90;;;16.52;100.00;100133.78;5181209;28;20499;-53
2023/04/22 07:06:42;;;;;;;3.35;1.88;;;16.00;99.90;;;16.67;98.50;100133.78;5164426;28;20137;-53
2023/04/22 07:09:15;;;;;;;3.50;1.80;;;16.20;99.90;;;16.91;96.78;100129.41;5164461;28;20097;-54
2023/04/22 07:11:47;;;;;;;2.25;1.80;;;16.40;99.90;;;17.24;93.54;100133.75;5163910;28;20046;-53
2023/04/22 07:14:26;;;;;;;3.10;2.10;;;16.70;99.90;;;17.76;90.43;100144.13;5164309;28;20525;-55
2023/04/22 07:16:58;;;;;;;2.05;1.80;;;17.20;99.90;;;18.17;87.16;100131.56;5165095;28;20077;-55
2023/04/22 07:19:30;;;;;;;2.47;2.05;;;17.60;99.90;;;18.61;85.31;100127.72;5164949;28;20046;-55
2023/04/22 07:22:05;;;;;;;2.63;1.83;;;18.00;99.90;;;19.06;83.97;100132.63;5157529;28;20064;-55
2023/04/22 07:24:37;;;;;;;2.35;1.60;;;18.40;99.40;;;19.44;80.24;100124.25;5165144;28;20503;-56
2023/04/22 07:27:09;;;;;;;4.70;1.70;;;18.80;97.30;;;19.71;78.46;100133.66;5165228;28;20104;-55
2023/04/22 07:29:41;;;;;;;2.60;1.77;;;19.10;96.40;;;20.03;78.14;100135.88;5163742;28;20105;-55
2023/04/22 07:32:13;;;;;;;2.53;1.63;;;19.40;95.80;;;20.42;76.88;100130.88;5165277;28;20049;-55
2023/04/22 07:34:45;;;;;;;2.95;1.60;;;19.70;94.60;;;20.72;76.30;100127.72;5165005;28;20043;-56
2023/04/22 07:37:19;;;;;;;3.00;1.60;;;20.00;94.00;;;20.87;74.65;100134.56;5164993;28;20050;-56
2023/04/22 07:39:51;;;;;;;2.35;1.73;;;20.20;92.60;;;21.09;73.99;100137.66;5164682;28;20081;-54
2023/04/22 07:42:23;;;;;;;2.40;1.63;;;20.40;92.00;;;21.28;73.24;100131.16;5164802;28;20529;-56
2023/04/22 07:44:55;;;;;;;1.67;1.30;;;20.60;91.20;;;21.43;72.42;100135.28;5164512;28;20381;-60
2023/04/22 07:47:28;;;;;;;2.40;1.70;;;20.70;90.70;;;21.45;71.56;100125.50;5164832;28;20470;-56
2023/04/22 07:50:00;;;;;;;2.47;1.92;;;20.80;89.80;;;21.36;69.46;100134.53;5164428;28;20049;-55
2023/04/22 07:52:33;;;;;;;3.45;1.55;;;20.70;86.00;;;21.29;68.96;100127.59;5164565;28;20046;-55
2023/04/22 07:55:07;;;;;;;2.63;1.42;;;20.70;85.20;;;21.40;68.53;100125.63;5157764;28;20046;-58
2023/04/22 07:57:39;;;;;;;3.20;1.60;;;20.70;84.20;;;21.55;68.48;100118.25;5164760;28;20059;-60
2023/04/22 08:00:13;;;;;;;2.92;1.80;;;20.70;84.00;;;21.77;68.08;100118.66;5164723;28;20509;-59
2023/04/22 08:02:46;;;;;;;2.47;1.70;;;20.90;83.40;;;21.95;66.53;100102.34;5181486;28;20046;-54
2023/04/22 08:05:18;;;;;;;2.13;1.23;;;21.10;81.40;;;22.21;65.23;100110.59;5171359;28;20402;-57
2023/04/22 08:07:51;;;;;;;1.90;1.50;;;21.20;79.70;;;22.35;64.36;100107.59;5165689;28;20530;-56
2023/04/22 08:10:24;;;;;;;1.80;1.60;;;21.40;78.30;;;22.60;64.04;100107.88;5163982;28;20050;-58
2023/04/22 08:12:56;;;;;;;1.85;1.50;;;21.50;78.00;;;22.93;63.08;100106.16;5164151;28;20038;-58
2023/04/22 08:15:28;;;;;;;1.77;1.50;;;21.70;77.10;;;23.02;63.44;100107.72;5163036;28;20053;-58
2023/04/22 08:18:00;;;;;;;2.47;1.67;;;21.80;76.60;;;23.27;62.66;100099.91;5163515;28;20431;-56
2023/04/22 08:20:32;;;;;;;2.60;1.60;;;21.90;76.00;;;23.39;61.72;100098.69;5163003;28;20061;-60
2023/04/22 08:23:06;;;;;;;3.83;1.58;;;22.00;74.90;;;23.42;60.91;100098.63;5156290;28;20050;-58
2023/04/22 08:25:38;;;;;;;2.40;1.50;;;22.00;73.60;;;23.43;60.69;100095.91;5163867;28;20129;-55
2023/04/22 08:28:10;;;;;;;3.22;1.52;;;22.00;73.30;;;23.76;60.64;100082.56;5164212;28;20038;-55
2023/04/22 08:30:42;;;;;;;1.48;1.30;;;22.00;73.60;;;24.24;59.72;100087.25;5162174;28;20116;-56
2023/04/22 08:33:14;;;;;;;2.20;1.52;;;22.30;73.60;;;24.86;57.96;100089.63;5163730;28;20049;-56
2023/04/22 08:35:47;;;;;;;2.63;1.70;;;;;;;24.98;57.55;100091.88;5163905;28;20043;-55
2023/04/22 08:38:20;;;;;;;2.33;1.33;;;;;;;24.76;57.08;100077.53;5163861;28;20517;-58
2023/04/22 08:40:57;;;;;;;2.20;1.58;;;;;;;24.26;57.84;100082.75;5162901;28;20625;-57
2023/04/22 08:43:30;;;;;;;2.28;1.30;;;;;;;23.71;59.59;100079.16;5163990;28;20129;-57
2023/04/22 08:46:02;;;;;;;2.03;1.27;;;;;;;23.95;59.89;100089.06;5164137;28;20049;-56
2023/04/22 08:48:35;;;;;;;2.50;1.75;;;;;;;24.14;58.13;100073.38;5164389;28;20121;-55
2023/04/22 08:51:07;;;;;;;1.63;1.40;;;;;;;24.48;58.42;100078.47;5164708;28;20049;-55
2023/04/22 08:53:41;;;;;;;4.65;1.75;;;;;;;25.04;57.32;100078.34;5164854;28;20052;-55
2023/04/22 08:56:14;;;;;;;2.80;1.50;;;;;;;25.54;56.17;100080.91;5182414;28;20085;-55
2023/04/22 08:58:46;;;;;;;2.25;1.60;;;;;;;26.00;55.20;100079.16;5182684;28;20046;-56
2023/04/22 09:01:20;;;;;;;2.15;1.52;;;;;;;26.22;54.26;100071.16;5164522;28;20042;-56
2023/04/22 09:03:53;;;;;;;2.13;1.40;;;;;;;26.56;53.67;100065.31;5164045;28;20047;-56
2023/04/22 09:06:26;;;;;;;2.97;1.63;;;;;;;26.39;52.71;100068.63;5162491;28;20054;-55
2023/04/22 09:09:01;;;;;;;1.80;1.50;;;;;;;25.97;53.50;100068.63;5164158;28;20085;-56
2023/04/22 09:11:34;;;;;;;2.67;1.55;;;;;;;25.57;54.45;100064.81;5163762;28;20046;-57
2023/04/22 09:14:07;;;;;;;3.88;1.60;;;;;;;25.28;54.16;100065.03;5162585;28;20050;-55
2023/04/22 09:16:42;;;;;;;2.40;1.60;;;24.00;64.00;;;24.47;55.82;100057.22;5163693;28;20042;-55
2023/04/22 09:19:15;;;;;;;2.60;1.42;;;23.50;65.30;;;24.19;56.99;100054.56;5163879;28;20138;-56
2023/04/22 09:21:47;;;;;;;4.13;1.60;;;23.30;66.20;;;23.76;57.41;100050.63;5163530;28;20046;-57
2023/04/22 09:24:21;;;;;;;2.63;1.70;;;23.10;66.40;;;23.54;58.41;100053.91;5163657;28;20423;-55
2023/04/22 09:26:56;;;;;;;3.67;1.50;;;22.90;67.30;;;23.24;58.86;100054.81;5163520;28;20050;-55
2023/04/22 09:29:30;;;;;;;4.38;1.73;;;22.70;67.80;;;23.01;59.61;100056.31;5163680;28;20057;-56
2023/04/22 09:32:10;;;;;;;2.67;1.85;;;22.40;68.20;;;22.77;60.76;100061.41;5163447;28;20049;-56
2023/04/22 09:34:50;;;;;;;2.67;1.40;;;22.30;69.40;;;22.78;60.96;100055.19;5163662;28;20418;-55
2023/04/22 09:37:25;;;;;;;3.25;1.60;;;22.20;69.60;;;22.95;60.70;100055.63;5163416;28;20038;-55
2023/04/22 09:39:59;;;;;;;2.95;1.27;;;22.30;69.60;;;23.21;60.95;100057.53;5179483;28;20385;-56
2023/04/22 09:42:31;;;;;;;2.35;1.70;;;22.40;69.90;;;23.42;60.54;100056.94;5163227;28;20055;-55
2023/04/22 09:45:04;;;;;;;2.28;1.33;;;22.60;69.80;;;23.71;58.99;100055.22;5162885;28;20038;-54
2023/04/22 09:47:36;;;;;;;1.88;1.20;;;22.90;68.70;;;23.76;58.51;100050.63;5162998;28;20451;-55
2023/04/22 09:50:09;;;;;;;3.15;1.52;;;23.00;67.90;;;23.85;58.37;100046.78;5143334;28;20047;-55
2023/04/22 09:52:41;;;;;;;3.08;1.60;;;23.10;67.70;;;23.96;59.03;100034.91;5159336;28;20543;-55
2023/04/22 09:55:15;;;;;;;2.97;1.20;;;23.20;68.00;;;24.19;59.66;100043.91;5163146;28;20447;-55
2023/04/22 09:57:47;;;;;;;3.60;1.70;;;23.40;68.90;;;24.21;58.34;100040.28;5162940;28;20046;-56
2023/04/22 10:00:19;;;;;;;1.67;1.52;;;23.40;67.50;;;24.01;57.65;100040.06;5163312;28;20050;-55
2023/04/22 10:02:51;;;;;;;2.65;1.40;;;23.30;66.70;;;23.52;57.97;100042.44;5163126;28;20046;-55
2023/04/22 10:05:24;;;;;;;3.15;1.60;;;23.00;66.30;;;23.54;58.82;100045.94;5162834;28;20054;-57
2023/04/22 10:07:56;;;;;;;1.88;1.50;;;22.90;67.50;;;23.51;59.00;100045.13;5171240;28;20077;-56
2023/04/22 10:10:30;;;;;;;3.90;1.50;;;22.90;67.40;;;23.47;59.95;100049.69;5170856;28;20053;-56
2023/04/22 10:13:03;;;;;;;1.95;1.50;;;22.80;69.20;;;23.71;59.13;100052.53;5169352;28;20066;-55
2023/04/22 10:15:39;;;;;;;1.92;1.50;;;22.90;68.30;;;23.93;57.65;100047.41;5163484;28;20045;-56
2023/04/22 10:18:16;;;;;;;2.50;1.45;;;23.10;66.80;;;24.07;58.08;100043.41;5156005;28;20035;-56
2023/04/22 10:20:49;;;;;;;1.83;1.35;;;23.20;66.90;;;24.17;58.97;100051.94;5163282;28;20042;-56
2023/04/22 10:23:24;;;;;;;4.32;1.90;;;23.30;67.70;;;24.27;57.26;100047.22;5163438;28;20054;-55
2023/04/22 10:25:58;;;;;;;2.08;1.50;;;23.50;66.40;;;24.44;57.69;100058.19;5162391;28;20394;-55
2023/04/22 10:28:30;;;;;;;2.65;1.35;;;23.60;66.70;;;24.46;56.86;100047.50;5162655;28;20050;-53
2023/04/22 10:31:06;;;;;;;1.63;1.38;;;23.60;65.70;;;24.19;57.58;100039.47;5161894;28;20044;-54
2023/04/22 10:33:39;;;;;;;2.15;1.50;;;23.50;66.00;;;23.97;58.21;100044.63;5162453;28;20046;-51
2023/04/22 10:36:17;;;;;;;2.03;1.73;;;23.40;66.50;;;23.93;57.92;100042.09;5154854;28;20042;-56
2023/04/22 10:39:15;;;;;;;2.85;1.55;;;23.30;66.20;;;23.97;57.52;100057.06;5162329;28;20066;-55
2023/04/22 10:41:56;;;;;;;3.20;1.85;;;23.30;66.30;;;24.03;58.34;100033.78;5161481;28;20042;-55